Time;durP1;ratioP1;P1;durP2;ratioP2;P2;SDS_P1;SDS_P2;PMS_P1;PMS_P2;Temp;Humidity;BMP_temperature;BMP_pressure;BME280_temperature;BME280_humidity;BME280_pressure;Samples;Min_cycle;Max_cycle;Signal;HPM_P1;HPM_P2
2022/08/25 00:01:55;;;;;;;8.88;8.18;;;;;;;21.43;83.94;101785.50;5032787;28;20049;-75
2022/08/25 00:04:23;;;;;;;9.98;8.40;;;;;;;21.39;84.71;101781.53;5032297;28;20048;-75
2022/08/25 00:06:51;;;;;;;9.00;8.10;;;;;;;21.34;84.79;101777.59;5032083;28;20522;-74
2022/08/25 00:09:22;;;;;;;8.43;7.82;;;;;;;21.32;84.80;101777.34;5031428;28;20569;-75
2022/08/25 00:11:49;;;;;;;9.50;8.70;;;;;;;21.25;85.56;101778.56;5031582;28;20112;-75
2022/08/25 00:14:22;;;;;;;12.73;8.15;;;;;;;21.22;85.39;101768.69;5032360;28;20046;-75
2022/08/25 00:16:49;;;;;;;8.70;8.10;;;;;;;21.20;85.65;101773.09;5032048;28;20100;-75
2022/08/25 00:19:19;;;;;;;10.15;8.90;;;;;;;21.16;85.69;101765.22;5032229;28;20041;-75
2022/08/25 00:21:46;;;;;;;9.40;8.70;;;;;;;21.17;85.66;101768.69;5030670;28;20463;-75
2022/08/25 00:24:16;;;;;;;9.77;8.95;;;;;;;21.16;85.00;101762.53;5030151;28;20053;-75
2022/08/25 00:26:47;;;;;;;11.07;9.00;;;;;;;21.13;85.81;101760.78;5031934;28;20521;-75
2022/08/25 00:29:14;;;;;;;9.32;8.63;;;;;;;21.09;85.76;101765.69;5030498;28;20049;-75
2022/08/25 00:31:41;;;;;;;9.15;8.38;;;;;;;21.08;85.54;101763.47;5031840;28;20533;-76
2022/08/25 00:34:11;;;;;;;10.57;9.48;;;;;;;21.02;86.37;101760.00;5032032;28;20046;-76
2022/08/25 00:36:38;;;;;;;9.30;8.55;;;;;;;20.96;85.94;101762.69;5032454;28;20046;-76
2022/08/25 00:39:07;;;;;;;9.00;8.40;;;;;;;20.92;86.26;101760.22;5031345;28;20097;-76
2022/08/25 00:41:34;;;;;;;8.95;8.35;;;;;;;20.84;86.07;101763.88;5030368;28;20085;-76
2022/08/25 00:44:05;;;;;;;9.60;8.70;;;;;;;20.81;86.04;101762.13;5031389;28;20073;-76
2022/08/25 00:46:41;;;;;;;10.25;9.40;;;;;;;20.79;86.51;101761.91;5032173;28;20050;-76
2022/08/25 00:49:16;;;;;;;9.20;8.50;;;;;;;20.73;86.45;101763.84;5031956;28;20046;-75
2022/08/25 00:52:13;;;;;;;9.30;8.60;;;;;;;20.67;86.38;101763.09;5031432;28;20066;-76
2022/08/25 00:54:52;;;;;;;9.77;8.75;;;;;;;20.62;87.40;101759.88;5031723;28;20050;-76
2022/08/25 00:57:33;;;;;;;11.23;8.18;;;;;;;20.61;87.06;101760.34;5032145;28;20102;-76
2022/08/25 01:00:05;;;;;;;8.77;8.15;;;;;;;20.56;86.94;101763.75;5031683;28;20101;-76
2022/08/25 01:02:32;;;;;;;9.43;8.60;;;;;;;20.52;88.08;101763.25;5031703;28;20050;-75
2022/08/25 01:04:58;;;;;;;9.48;8.77;;;;;;;20.48;87.93;101758.06;5031525;28;20132;-75
2022/08/25 01:07:25;;;;;;;9.40;8.70;;;;;;;20.46;87.71;101760.50;5029447;28;20112;-75
2022/08/25 01:09:52;;;;;;;9.55;8.85;;;;;;;20.41;87.61;101758.50;5029869;28;20046;-75
2022/08/25 01:12:19;;;;;;;10.10;9.30;;;;;;;20.38;89.08;101761.47;5031729;28;20046;-75
2022/08/25 01:14:47;;;;;;;9.95;9.20;;;;;;;20.36;87.63;101764.63;5032500;28;20096;-75
2022/08/25 01:17:15;;;;;;;10.07;9.13;;;;;;;20.33;88.39;101759.44;5050694;28;20046;-75
2022/08/25 01:19:41;;;;;;;9.65;8.73;;;;;;;20.27;88.05;101756.69;5049312;28;20056;-75
2022/08/25 01:22:10;;;;;;;9.35;8.60;;;;;;;20.25;88.11;101746.38;5049387;28;20962;-75
2022/08/25 01:24:45;;;;;;;9.88;9.00;;;;;;;20.25;88.32;101743.66;5054048;28;20053;-75
2022/08/25 01:27:12;;;;;;;9.57;8.73;;;;;;;20.21;88.13;101748.53;5053461;28;20123;-75
2022/08/25 01:29:39;;;;;;;10.07;9.05;;;;;;;20.18;88.49;101746.81;5054424;28;20050;-76
2022/08/25 01:32:09;;;;;;;10.00;9.02;;;;;;;20.13;88.89;101742.09;5053254;28;20111;-75
2022/08/25 01:34:39;;;;;;;9.55;8.70;;;;;;;20.10;88.55;101745.03;5052941;28;20068;-75
2022/08/25 01:37:06;;;;;;;9.60;8.80;;;;;;;20.07;88.92;101746.72;5052556;28;20056;-75
2022/08/25 01:39:37;;;;;;;9.27;8.02;;;;;;;20.02;89.02;101747.44;5052953;28;20277;-75
2022/08/25 01:42:10;;;;;;;8.95;8.02;;;;;;;19.99;88.37;101749.13;5054436;28;20104;-75
2022/08/25 01:44:39;;;;;;;9.40;8.77;;;;;;;19.94;88.39;101754.50;5054141;28;20637;-75
2022/08/25 01:47:07;;;;;;;9.27;8.57;;;;;;;19.91;89.02;101748.09;5054070;28;20045;-76
2022/08/25 01:49:34;;;;;;;9.93;8.98;;;;;;;19.89;89.69;101741.69;5069176;28;20108;-75
2022/08/25 01:52:09;;;;;;;10.50;9.52;;;;;;;19.86;89.54;101746.09;5052797;28;20053;-75
2022/08/25 01:54:35;;;;;;;9.40;8.60;;;;;;;19.84;88.56;101745.84;5054230;28;20093;-75
2022/08/25 01:57:02;;;;;;;10.27;9.48;;;;;;;19.80;88.91;101745.31;5054165;28;20049;-75
2022/08/25 01:59:29;;;;;;;9.02;8.40;;;;;;;19.77;88.61;101746.28;5054112;28;20041;-75
2022/08/25 02:01:55;;;;;;;9.57;8.88;;;;;;;19.76;89.16;101739.38;5069726;28;20215;-75
2022/08/25 02:04:30;;;;;;;9.77;8.98;;;;;;;19.70;88.77;101741.28;5053002;28;20116;-76
2022/08/25 02:07:02;;;;;;;10.45;8.77;;;;;;;19.72;89.39;101748.91;5054147;28;20392;-76
2022/08/25 02:09:29;;;;;;;9.27;8.52;;;;;;;19.64;88.88;101740.50;5053330;28;20474;-76
2022/08/25 02:11:56;;;;;;;9.55;8.35;;;;;;;19.61;89.19;101742.19;5053847;28;20041;-76
2022/08/25 02:14:22;;;;;;;9.30;8.60;;;;;;;19.59;89.65;101735.81;5053954;28;20096;-76
2022/08/25 02:16:51;;;;;;;9.10;8.40;;;;;;;19.57;89.75;101743.66;5053877;28;20093;-76
2022/08/25 02:19:19;;;;;;;8.93;8.20;;;;;;;19.53;89.47;101735.78;5069133;28;20077;-76
2022/08/25 02:21:46;;;;;;;9.05;8.15;;;;;;;19.51;90.24;101740.16;5053644;28;20053;-76
2022/08/25 02:24:12;;;;;;;9.55;8.63;;;;;;;19.50;90.46;101738.66;5053644;28;20123;-76
2022/08/25 02:26:41;;;;;;;8.50;7.90;;;;;;;19.49;89.63;101742.56;5053732;28;20045;-76
2022/08/25 02:29:08;;;;;;;8.93;8.23;;;;;;;19.51;90.35;101738.19;5051949;28;20568;-76
2022/08/25 02:31:35;;;;;;;9.00;8.30;;;;;;;19.52;89.83;101741.66;5053422;28;20140;-75
2022/08/25 02:34:02;;;;;;;9.13;8.32;;;;;;;19.52;90.07;101738.94;5052749;28;20050;-76
2022/08/25 02:36:30;;;;;;;9.93;8.52;;;;;;;19.51;90.47;101735.50;5051931;28;20099;-76
2022/08/25 02:38:57;;;;;;;9.02;8.20;;;;;;;19.51;90.31;101735.50;5053475;28;20552;-76
2022/08/25 02:41:25;;;;;;;8.32;7.53;;;;;;;19.50;90.31;101733.25;5053377;28;20053;-76
2022/08/25 02:43:57;;;;;;;8.30;7.15;;;;;;;19.51;90.01;101732.81;5052453;28;20046;-75
2022/08/25 02:46:24;;;;;;;9.43;8.20;;;;;;;19.50;89.94;101728.59;5052029;28;20096;-76
2022/08/25 02:48:52;;;;;;;8.50;7.65;;;;;;;19.48;90.26;101722.94;5067840;28;20069;-75
2022/08/25 02:51:27;;;;;;;8.00;7.40;;;;;;;19.48;90.24;101720.22;5052379;28;20526;-76
2022/08/25 02:53:53;;;;;;;8.32;7.63;;;;;;;19.47;89.65;101724.16;5035298;28;20111;-76
2022/08/25 02:56:20;;;;;;;9.82;8.32;;;;;;;19.45;89.78;101723.88;5053533;28;20049;-76
2022/08/25 02:58:47;;;;;;;9.55;8.55;;;;;;;19.47;89.98;101726.09;5053448;28;20545;-76
2022/08/25 03:01:15;;;;;;;9.27;8.55;;;;;;;19.46;90.47;101722.66;5051886;28;20049;-76
2022/08/25 03:03:43;;;;;;;10.07;9.13;;;;;;;19.45;90.15;101721.19;5052498;28;20041;-75
2022/08/25 03:06:13;;;;;;;9.50;8.70;;;;;;;19.46;89.79;101716.53;5052899;28;20095;-75
2022/08/25 03:08:40;;;;;;;9.85;8.90;;;;;;;19.45;90.20;101713.06;5052158;28;20125;-76
2022/08/25 03:11:07;;;;;;;10.80;9.70;;;;;;;19.45;90.18;101715.03;5051609;28;20049;-75
2022/08/25 03:13:34;;;;;;;9.60;8.80;;;;;;;19.43;89.76;101714.78;5052984;28;20049;-75
2022/08/25 03:16:03;;;;;;;8.88;8.25;;;;;;;19.41;90.19;101701.75;5052609;28;20045;-76
2022/08/25 03:18:30;;;;;;;9.07;8.48;;;;;;;19.43;90.52;101701.28;5051938;28;20068;-76
2022/08/25 03:20:57;;;;;;;9.95;9.05;;;;;;;19.42;89.98;101694.38;5052957;28;20049;-75
2022/08/25 03:23:24;;;;;;;11.18;10.05;;;;;;;19.41;88.13;101704.44;5052756;28;20049;-75
2022/08/25 03:28:40;;;;;;;10.65;9.77;;;;;;;19.41;88.63;101701.00;5052540;28;20080;-76
2022/08/25 03:31:08;;;;;;;15.18;10.20;;;;;;;19.39;87.88;101695.34;5052244;28;20104;-75
2022/08/25 03:33:35;;;;;;;11.75;10.75;;;;;;;19.37;87.86;101690.41;5052556;28;20084;-76
2022/08/25 03:36:02;;;;;;;11.93;9.90;;;;;;;19.37;88.06;101695.81;5052623;28;20518;-75
2022/08/25 03:38:28;;;;;;;13.65;10.45;;;;;;;19.34;87.53;101688.66;5052581;28;20095;-75
2022/08/25 03:40:55;;;;;;;11.65;10.50;;;;;;;19.30;87.69;101690.84;5052017;28;20049;-75
2022/08/25 03:43:21;;;;;;;10.55;9.68;;;;;;;19.27;88.59;101683.69;5051272;28;20042;-75
2022/08/25 03:45:48;;;;;;;10.90;8.90;;;;;;;19.25;88.21;101688.81;5050074;28;20138;-75
2022/08/25 03:48:16;;;;;;;10.52;9.45;;;;;;;19.24;88.46;101690.03;5052214;28;20041;-76
2022/08/25 03:50:48;;;;;;;9.88;9.02;;;;;;;19.21;88.73;101677.50;5052271;28;20045;-75
2022/08/25 03:53:18;;;;;;;9.40;8.40;;;;;;;19.16;88.57;101673.56;5052886;28;20042;-75
2022/08/25 03:55:44;;;;;;;8.07;7.55;;;;;;;19.13;88.86;101676.47;5052022;28;20045;-75
2022/08/25 03:58:11;;;;;;;9.77;7.90;;;;;;;19.09;89.50;101681.34;5052224;28;20042;-76
2022/08/25 04:00:38;;;;;;;7.95;7.30;;;;;;;19.03;89.75;101680.53;5051866;28;20514;-76
2022/08/25 04:03:05;;;;;;;8.93;8.23;;;;;;;18.97;89.26;101673.13;5052243;28;20051;-75
2022/08/25 04:05:31;;;;;;;8.68;7.80;;;;;;;18.92;88.74;101673.78;5051987;28;20406;-76
2022/08/25 04:08:00;;;;;;;8.48;7.65;;;;;;;18.91;89.47;101666.91;5051444;28;20498;-75
2022/08/25 04:10:27;;;;;;;10.27;8.45;;;;;;;18.89;88.97;101672.03;5052104;28;20533;-76
2022/08/25 04:12:54;;;;;;;9.40;8.60;;;;;;;18.84;89.93;101670.03;5050936;28;20045;-75
2022/08/25 04:15:21;;;;;;;8.90;8.30;;;;;;;18.84;89.44;101661.94;5050183;28;20046;-76
2022/08/25 04:17:48;;;;;;;8.75;8.13;;;;;;;18.81;89.42;101664.84;5050923;28;20046;-75
2022/08/25 04:20:17;;;;;;;9.75;8.85;;;;;;;18.79;89.40;101662.63;5052336;28;20414;-76
2022/08/25 04:22:44;;;;;;;8.70;7.78;;;;;;;18.78;89.72;101663.13;5050741;28;20053;-75
2022/08/25 04:25:11;;;;;;;8.93;8.05;;;;;;;18.73;89.75;101656.44;5050445;28;20054;-76
2022/08/25 04:27:37;;;;;;;8.48;7.78;;;;;;;18.69;89.99;101655.16;5050502;28;20053;-76
2022/08/25 04:30:05;;;;;;;8.73;8.07;;;;;;;18.65;90.15;101656.09;5050057;28;20057;-75
2022/08/25 04:32:34;;;;;;;8.57;7.88;;;;;;;18.64;90.10;101656.56;5050489;28;20089;-76
2022/08/25 04:35:00;;;;;;;10.25;8.55;;;;;;;18.56;89.91;101650.06;5033492;28;20052;-75
2022/08/25 04:37:27;;;;;;;8.52;7.70;;;;;;;18.56;90.03;101652.78;5051384;28;20490;-76
2022/08/25 04:39:53;;;;;;;8.48;7.78;;;;;;;18.56;90.18;101655.47;5049850;28;20064;-76
2022/08/25 04:42:20;;;;;;;9.10;7.55;;;;;;;18.57;89.85;101651.56;5051624;28;20072;-75
2022/08/25 04:44:47;;;;;;;7.82;7.20;;;;;;;18.52;90.81;101652.97;5066580;28;20056;-76
2022/08/25 04:47:14;;;;;;;7.85;7.25;;;;;;;18.49;88.98;101653.19;5051650;28;20041;-76
2022/08/25 04:49:40;;;;;;;8.63;7.82;;;;;;;18.50;89.57;101660.06;5049746;28;20503;-75
2022/08/25 04:52:07;;;;;;;8.07;7.57;;;;;;;18.51;90.37;101656.16;5051913;28;20042;-76
2022/08/25 04:54:40;;;;;;;9.18;8.35;;;;;;;18.50;90.10;101654.66;5051788;28;20041;-76
2022/08/25 04:57:06;;;;;;;8.93;8.00;;;;;;;18.50;89.92;101654.66;5051440;28;20045;-76
2022/08/25 04:59:33;;;;;;;9.13;8.20;;;;;;;18.51;90.50;101653.44;5054617;28;20053;-76
2022/08/25 05:02:04;;;;;;;8.70;7.97;;;;;;;18.50;89.89;101650.00;5055028;28;20045;-75
2022/08/25 05:04:32;;;;;;;8.33;7.73;;;;;;;18.54;89.67;101655.19;5054790;28;20052;-76
2022/08/25 05:06:59;;;;;;;9.20;8.23;;;;;;;18.54;89.83;101657.91;5053542;28;20284;-75
2022/08/25 05:09:26;;;;;;;8.85;8.23;;;;;;;18.54;89.48;101652.50;5054539;28;20053;-75
2022/08/25 05:11:53;;;;;;;9.45;8.43;;;;;;;18.57;89.57;101654.25;5054740;28;20052;-76
2022/08/25 05:14:21;;;;;;;9.77;8.88;;;;;;;18.60;89.51;101653.34;5054880;28;20037;-77
2022/08/25 05:16:53;;;;;;;9.55;8.77;;;;;;;18.64;89.39;101656.56;5054386;28;20112;-77
2022/08/25 05:19:20;;;;;;;10.10;9.20;;;;;;;18.68;89.61;101659.81;5053492;28;20053;-77
2022/08/25 05:21:47;;;;;;;9.70;8.65;;;;;;;18.75;89.55;101662.09;5053174;28;20050;-77
2022/08/25 05:24:13;;;;;;;9.82;8.52;;;;;;;18.84;88.55;101661.19;5054870;28;20490;-77
2022/08/25 05:26:42;;;;;;;8.75;7.80;;;;;;;18.92;88.66;101660.31;5053476;28;20045;-77
2022/08/25 05:29:09;;;;;;;8.88;8.15;;;;;;;18.98;88.17;101660.38;5054035;28;20049;-76
2022/08/25 05:31:36;;;;;;;9.10;8.30;;;;;;;19.08;87.86;101671.75;5054164;28;20056;-76
2022/08/25 05:34:10;;;;;;;8.32;7.80;;;;;;;19.16;88.18;101675.50;5054757;28;20048;-76
2022/08/25 05:36:41;;;;;;;10.13;9.20;;;;;;;19.27;87.63;101679.03;5054232;28;20045;-82
2022/08/25 05:39:09;;;;;;;9.45;8.73;;;;;;;19.97;85.35;101678.63;5069710;28;20056;-77
2022/08/25 05:41:35;;;;;;;10.55;9.02;;;;;;;21.14;80.25;101694.59;5053997;28;20037;-74
2022/08/25 05:44:02;;;;;;;9.18;8.27;;;;;;;22.22;75.25;101686.66;5052818;28;20447;-74
2022/08/25 05:46:29;;;;;;;9.35;8.55;;;;;;;23.10;70.96;101686.75;5054151;28;20049;-74
2022/08/25 05:48:57;;;;;;;10.50;8.77;;;;;;;23.70;67.59;101683.31;5054102;28;20485;-74
2022/08/25 05:51:25;;;;;;;9.13;8.25;;;;;;;23.98;66.26;101688.47;5052857;28;20065;-73
2022/08/25 05:53:51;;;;;;;9.13;8.43;;;;;;;23.44;67.35;101691.91;5054042;28;20049;-74
2022/08/25 05:56:18;;;;;;;9.25;7.93;;;;;;;22.57;70.09;101685.28;5052282;28;20061;-72
2022/08/25 05:58:46;;;;;;;8.68;7.90;;;;;;;22.22;72.12;101688.63;5054314;28;20051;-74
2022/08/25 06:04:11;;;;;;;13.82;8.18;;;;;;;23.49;67.94;101686.44;5054089;28;20046;-74
2022/08/25 06:06:38;;;;;;;8.77;7.90;;;;;;;23.42;66.77;101692.41;5069264;28;20050;-74
2022/08/25 06:09:07;;;;;;;14.60;7.85;;;;;;;23.64;66.78;101691.50;5052274;28;20108;-74
2022/08/25 06:11:36;;;;;;;7.65;6.95;;;;;;;24.27;60.65;101690.41;5052962;28;20590;-74
2022/08/25 06:14:03;;;;;;;8.75;7.15;;;;;;;24.12;60.14;101690.78;5053621;28;20049;-74
2022/08/25 06:16:30;;;;;;;12.40;6.90;;;;;;;23.77;61.49;101688.19;5053698;28;20037;-74
2022/08/25 06:18:57;;;;;;;12.70;6.53;;;;;;;23.37;61.70;101700.59;5053434;28;20055;-74
2022/08/25 06:21:24;;;;;;;8.35;7.47;;;;;;;22.94;63.84;101701.88;5053309;28;20056;-74
2022/08/25 06:23:50;;;;;;;9.40;6.93;;;;;;;22.61;64.69;101696.63;5053493;28;20049;-74
2022/08/25 06:26:18;;;;;;;14.32;7.45;;;;;;;22.41;64.14;101702.34;5053245;28;20042;-74
2022/08/25 06:28:47;;;;;;;8.38;7.07;;;;;;;22.26;65.89;101698.00;5053640;28;20050;-74
2022/08/25 06:31:14;;;;;;;8.23;7.45;;;;;;;22.14;67.76;101696.53;5053730;28;20502;-74
2022/08/25 06:33:40;;;;;;;12.07;8.38;;;;;;;22.06;68.34;101701.00;5053331;28;20045;-73
2022/08/25 06:36:07;;;;;;;11.85;8.15;;;;;;;22.08;69.10;101705.91;5068607;28;20045;-74
2022/08/25 06:38:34;;;;;;;17.02;9.38;;;;;;;22.25;68.04;101701.94;5053176;28;20502;-74
2022/08/25 06:41:03;;;;;;;11.02;8.00;;;;;;;22.27;68.08;101709.56;5051458;28;20570;-74
2022/08/25 06:43:31;;;;;;;11.95;7.88;;;;;;;22.21;65.88;101706.13;5052893;28;20050;-74
2022/08/25 06:46:10;;;;;;;13.80;8.25;;;;;;;22.19;65.51;101705.91;5051772;28;20053;-76
2022/08/25 06:48:37;;;;;;;17.08;8.70;;;;;;;22.41;65.07;101703.09;5051075;28;20050;-76
2022/08/25 06:51:06;;;;;;;11.15;8.80;;;;;;;22.62;65.19;101696.13;5068325;28;20079;-76
2022/08/25 06:53:33;;;;;;;10.45;8.10;;;;;;;22.81;63.76;101690.13;5051782;28;20053;-76
2022/08/25 06:56:00;;;;;;;8.60;7.75;;;;;;;22.86;64.12;101692.78;5052298;28;20084;-75
2022/08/25 06:58:32;;;;;;;15.38;8.18;;;;;;;22.91;63.14;101694.75;5052959;28;20056;-76
2022/08/25 07:01:12;;;;;;;17.50;6.97;;;;;;;23.05;63.81;101695.66;5052519;28;20495;-76
2022/08/25 07:03:46;;;;;;;13.07;8.20;;;;;;;23.15;62.02;101696.81;5053242;28;20073;-78
2022/08/25 07:06:14;;;;;;;8.43;7.47;;;;;;;23.28;62.95;101693.50;5052941;28;20474;-76
2022/08/25 07:08:45;;;;;;;10.85;7.20;;;;;;;23.40;62.57;101689.47;5052008;28;20057;-75
2022/08/25 07:11:13;;;;;;;14.02;7.43;;;;;;;23.55;62.71;101687.16;5051148;28;20045;-76
2022/08/25 07:13:44;;;;;;;11.00;7.25;;;;;;;23.72;62.56;101691.69;5053111;28;20034;-76
2022/08/25 07:16:11;;;;;;;8.32;6.93;;;;;;;23.88;62.32;101696.97;5052785;28;20041;-76
2022/08/25 07:18:38;;;;;;;9.30;7.13;;;;;;;24.05;61.37;101685.91;5052070;28;20069;-76
2022/08/25 07:21:04;;;;;;;8.18;6.07;;;;;;;24.19;60.81;101692.19;5051732;28;20041;-75
2022/08/25 07:23:35;;;;;;;12.13;5.75;;;;;;;24.30;59.15;101694.81;5051418;28;20049;-76
2022/08/25 07:26:14;;;;;;;8.23;5.38;;;;;;;24.48;58.75;101696.81;5052520;28;20072;-76
2022/08/25 07:29:10;;;;;;;6.70;4.90;;;;;;;24.67;57.35;101702.25;5052314;28;20077;-76
2022/08/25 07:31:38;;;;;;;9.68;5.40;;;;;;;24.80;55.60;101699.59;5052359;28;20070;-76
2022/08/25 07:36:52;;;;;;;9.05;3.88;;;;;;;24.91;54.58;101696.72;5052490;28;20080;-76
2022/08/25 07:39:20;;;;;;;6.78;4.18;;;;;;;24.84;54.13;101696.56;5052227;28;20045;-75
2022/08/25 07:41:47;;;;;;;7.30;4.05;;;;;;;24.91;53.29;101696.72;5052580;28;20050;-76
2022/08/25 07:44:20;;;;;;;8.55;4.32;;;;;;;25.03;53.07;101697.31;5052746;28;20521;-75
2022/08/25 07:46:47;;;;;;;4.47;4.03;;;;;;;25.11;51.80;101694.75;5052361;28;20049;-76
2022/08/25 07:49:17;;;;;;;6.32;3.97;;;;;;;25.21;51.79;101691.09;5052305;28;20052;-75
2022/08/25 07:51:49;;;;;;;5.25;3.97;;;;;;;25.37;51.51;101688.63;5052588;28;20044;-76
2022/08/25 07:54:33;;;;;;;7.10;3.88;;;;;;;25.51;50.44;101690.13;5052401;28;20049;-76
2022/08/25 07:57:03;;;;;;;;;;;;;;;25.66;53.21;101684.19;5052740;28;20048;-75
2022/08/25 07:59:30;;;;;;;7.47;3.92;;;;;;;25.74;49.48;101683.03;5051943;28;19933;-75
2022/08/25 08:02:07;;;;;;;6.68;4.07;;;;;;;25.82;49.93;101691.34;5052173;28;20119;-76
2022/08/25 08:04:45;;;;;;;9.90;4.70;;;;;;;25.96;49.15;101687.38;5050606;28;20482;-75
2022/08/25 08:07:11;;;;;;;6.30;3.75;;;;;;;26.22;48.91;101684.59;5051305;28;20053;-76
2022/08/25 08:09:38;;;;;;;9.38;4.10;;;;;;;26.40;48.56;101685.00;5051548;28;20049;-75
2022/08/25 08:12:05;;;;;;;6.72;3.85;;;;;;;26.61;48.14;101687.81;5051884;28;20049;-75
2022/08/25 08:14:31;;;;;;;7.57;4.10;;;;;;;26.78;48.41;101682.72;5052012;28;20095;-75
2022/08/25 08:16:58;;;;;;;4.47;4.00;;;;;;;26.92;47.34;101676.66;5051767;28;20526;-76
2022/08/25 08:19:25;;;;;;;14.43;4.57;;;;;;;27.09;48.29;101672.81;5052058;28;20540;-75
2022/08/25 08:21:51;;;;;;;6.00;4.05;;;;;;;27.30;47.03;101681.00;5051307;28;20049;-76
2022/08/25 08:24:22;;;;;;;11.02;4.35;;;;;;;27.45;45.43;101676.41;5051781;28;20049;-77
2022/08/25 08:27:10;;;;;;;10.43;4.38;;;;;;;27.65;45.67;101674.91;5048301;28;20069;-77
2022/08/25 08:29:38;;;;;;;10.00;4.43;;;;;;;27.82;45.74;101674.47;5010283;28;20142;-77
2022/08/25 08:32:08;;;;;;;6.07;4.07;;;;;;;27.93;45.55;101679.63;5011148;28;20046;-76
2022/08/25 08:34:35;;;;;;;9.38;4.30;;;;;;;28.11;44.73;101667.66;5011988;28;20047;-76
2022/08/25 08:37:02;;;;;;;7.53;4.05;;;;;;;28.23;43.49;101668.13;5011162;28;20061;-76
2022/08/25 08:39:29;;;;;;;11.85;4.03;;;;;;;28.24;43.82;101668.84;5011736;28;20051;-76
2022/08/25 08:42:16;;;;;;;9.43;4.30;;;;;;;28.30;43.38;101670.16;5011518;28;20448;-77
2022/08/25 08:44:45;;;;;;;9.35;4.10;;;;;;;28.33;42.82;101663.59;5011782;28;20051;-76
2022/08/25 08:47:30;;;;;;;5.93;3.88;;;;;;;28.36;43.79;101656.31;5010732;28;20050;-76
2022/08/25 08:50:02;;;;;;;7.05;4.45;;;;;;;28.50;42.49;101660.34;5010166;28;20050;-76
2022/08/25 08:52:42;;;;;;;4.82;4.07;;;;;;;28.70;42.56;101661.50;5011579;28;20053;-76
2022/08/25 08:55:38;;;;;;;5.93;3.88;;;;;;;28.68;42.84;101661.31;5011233;28;20090;-75
2022/08/25 08:58:11;;;;;;;4.70;3.38;;;;;;;28.73;42.66;101655.66;5012329;28;20058;-75
2022/08/25 09:00:46;;;;;;;5.55;3.65;;;;;;;28.90;42.47;101654.41;5011398;28;20504;-75
2022/08/25 09:03:26;;;;;;;9.32;4.05;;;;;;;29.02;41.63;101653.50;5011853;28;20760;-76
2022/08/25 09:05:56;;;;;;;5.68;3.78;;;;;;;29.15;41.70;101653.31;5010934;28;20054;-78
2022/08/25 09:08:22;;;;;;;10.45;3.70;;;;;;;29.20;40.91;101659.88;5010969;28;20062;-80
2022/08/25 09:11:29;;;;;;;4.00;3.60;;;;;;;29.30;41.84;101655.31;5026178;28;20574;-75
2022/08/25 09:14:15;;;;;;;3.90;3.60;;;;;;;29.54;39.75;101648.56;5011150;28;20122;-74
2022/08/25 09:16:53;;;;;;;4.07;3.67;;;;;;;29.63;40.14;101644.47;5011120;28;20055;-74
2022/08/25 09:20:01;;;;;;;9.45;4.15;;;;;;;29.85;41.48;101657.41;5010413;28;20082;-74
2022/08/25 09:23:02;;;;;;;6.63;3.55;;;;;;;29.87;39.06;101649.38;5012520;28;20101;-74
2022/08/25 09:25:55;;;;;;;15.25;3.40;;;;;;;30.02;39.51;101654.06;4993277;28;20050;-73
2022/08/25 09:28:35;;;;;;;5.40;3.25;;;;;;;30.06;38.76;101654.44;5011105;28;20042;-74
2022/08/25 09:31:11;;;;;;;9.63;3.92;;;;;;;30.21;37.85;101653.63;5010580;28;20408;-74
2022/08/25 09:33:38;;;;;;;4.00;3.63;;;;;;;30.25;37.29;101648.50;5010859;28;20042;-73
2022/08/25 09:36:06;;;;;;;9.52;3.50;;;;;;;30.34;38.55;101650.66;5010867;28;20053;-73
2022/08/25 09:38:35;;;;;;;6.03;3.72;;;;;;;30.52;38.07;101652.19;5011264;28;20048;-81
2022/08/25 09:41:02;;;;;;;6.18;3.40;;;;;;;30.60;36.12;101652.16;5009802;28;20101;-74
2022/08/25 09:43:31;;;;;;;4.07;3.25;;;;;;;30.71;36.07;101638.72;5010752;28;20050;-74
2022/08/25 09:46:22;;;;;;;8.73;3.60;;;;;;;30.90;37.51;101640.94;5012258;28;20423;-74
2022/08/25 09:48:58;;;;;;;5.07;3.50;;;;;;;31.01;37.31;101650.75;5014132;28;20047;-74
2022/08/25 09:51:34;;;;;;;8.15;3.08;;;;;;;31.19;37.41;101646.78;5029167;28;20057;-73
2022/08/25 09:54:11;;;;;;;4.63;3.30;;;;;;;31.30;36.88;101638.03;5014534;28;20666;-73
2022/08/25 09:56:48;;;;;;;8.05;3.92;;;;;;;31.40;36.84;101624.38;5014533;28;20054;-74
2022/08/25 09:59:24;;;;;;;7.55;3.70;;;;;;;31.54;36.73;101631.03;5014464;28;20050;-74
2022/08/25 10:02:22;;;;;;;8.00;3.30;;;;;;;31.63;36.12;101627.59;5014123;28;20046;-75
2022/08/25 10:04:49;;;;;;;8.73;3.55;;;;;;;31.71;34.98;101613.78;5013770;28;20053;-74
2022/08/25 10:07:26;;;;;;;6.93;3.53;;;;;;;31.82;35.02;101624.31;5014068;28;20502;-73
2022/08/25 10:09:56;;;;;;;10.77;3.80;;;;;;;31.83;35.34;101618.22;5014161;28;20046;-74
2022/08/25 10:12:36;;;;;;;4.90;3.33;;;;;;;31.98;36.16;101619.34;5013869;28;20046;-74
2022/08/25 10:15:18;;;;;;;7.00;4.07;;;;;;;32.01;35.45;101613.41;5013723;28;20350;-74
2022/08/25 10:17:55;;;;;;;5.18;3.33;;;;;;;32.18;36.15;101607.13;5027495;28;20046;-74
2022/08/25 10:20:26;;;;;;;7.22;3.67;;;;;;;32.27;35.15;101614.00;5013985;28;20054;-77
2022/08/25 10:23:11;;;;;;;5.63;2.85;;;;;;;32.34;35.44;101602.16;5013687;28;20053;-76
2022/08/25 10:25:48;;;;;;;6.27;3.80;;;;;;;32.49;33.97;101597.13;5013933;28;20047;-76
2022/08/25 10:28:40;;;;;;;5.70;3.58;;;;;;;32.48;34.29;101589.44;5013748;28;20187;-75
2022/08/25 10:31:21;;;;;;;7.07;3.17;;;;;;;32.56;34.85;101586.56;5013440;28;20412;-75
2022/08/25 10:33:51;;;;;;;10.45;3.40;;;;;;;32.56;33.38;101581.78;5013753;28;20494;-75
2022/08/25 10:36:22;;;;;;;9.88;3.22;;;;;;;32.77;33.63;101578.53;5012701;28;20113;-75
2022/08/25 10:39:00;;;;;;;6.15;3.42;;;;;;;32.84;33.98;101580.41;5013747;28;20046;-74
2022/08/25 10:41:42;;;;;;;5.82;3.20;;;;;;;32.84;33.46;101577.66;5013171;28;20514;-75
2022/08/25 10:47:38;;;;;;;3.72;3.42;;;;;;;32.95;34.45;101562.59;5013041;28;20046;-74
2022/08/25 10:50:07;;;;;;;3.60;3.00;;;;;;;33.09;32.89;101564.34;5012994;28;20526;-78
2022/08/25 10:52:38;;;;;;;5.00;3.20;;;;;;;33.13;32.36;101563.91;5012046;28;20042;-75
2022/08/25 10:55:24;;;;;;;4.75;2.95;;;;;;;33.09;31.94;101552.59;5027872;28;20500;-73
2022/08/25 10:58:21;;;;;;;6.22;2.83;;;;;;;32.95;31.41;101546.03;5013142;28;20109;-73
2022/08/25 11:01:17;;;;;;;4.85;2.97;;;;;;;32.99;32.50;101549.09;5012745;28;20541;-73
2022/08/25 11:03:58;;;;;;;3.30;3.00;;;;;;;33.13;32.41;101544.63;5013303;28;20083;-73
2022/08/25 11:06:39;;;;;;;8.27;3.67;;;;;;;33.09;30.40;101542.28;5013070;28;20579;-73
2022/08/25 11:09:11;;;;;;;7.88;2.83;;;;;;;32.84;30.20;101539.06;5010386;28;20058;-73
2022/08/25 11:11:45;;;;;;;6.20;2.83;;;;;;;32.76;29.69;101538.50;5011540;28;20124;-73
2022/08/25 11:14:34;;;;;;;6.28;2.95;;;;;;;32.70;30.25;101536.00;5013154;28;20188;-74
2022/08/25 11:17:08;;;;;;;5.78;3.33;;;;;;;32.69;28.89;101531.78;5012431;28;20448;-74
2022/08/25 11:19:47;;;;;;;99.13;84.07;;;;;;;32.71;28.39;101531.19;5011335;28;20051;-74
2022/08/25 11:22:35;;;;;;;4.97;3.38;;;;;;;32.70;29.87;101527.00;5011788;28;20050;-75
2022/08/25 11:25:24;;;;;;;4.20;2.88;;;;;;;32.77;29.94;101529.66;5012810;28;20043;-72
2022/08/25 11:28:04;;;;;;;6.65;2.50;;;;;;;32.80;31.34;101524.97;5012257;28;20050;-74
2022/08/25 11:30:32;;;;;;;3.78;2.60;;;;;;;32.80;29.00;101524.97;5010787;28;20054;-74
2022/08/25 11:32:58;;;;;;;4.30;2.60;;;;;;;32.82;29.62;101522.38;5012577;28;20081;-74
2022/08/25 11:35:57;;;;;;;5.25;2.50;;;;;;;32.95;29.93;101518.47;5010114;28;20624;-74
2022/08/25 11:38:59;;;;;;;3.08;2.80;;;;;;;33.04;29.51;101512.25;5012051;28;20053;-73
2022/08/25 11:41:36;;;;;;;;;;;;;;;32.98;30.92;101509.03;5012700;28;20050;-73
2022/08/25 11:44:45;;;;;;;7.00;2.70;;;;;;;32.94;29.52;101500.47;5012667;28;19926;-73
2022/08/25 11:47:37;;;;;;;8.18;2.88;;;;;;;32.79;29.02;101502.19;5012734;28;20526;-74
2022/08/25 11:50:24;;;;;;;2.97;2.67;;;;;;;32.82;29.28;101497.56;5010896;28;20066;-73
2022/08/25 11:53:01;;;;;;;3.55;2.55;;;;;;;33.01;29.91;101505.13;5010858;28;20057;-73
2022/08/25 11:55:33;;;;;;;8.10;2.72;;;;;;;33.21;29.66;101494.78;5012013;28;20050;-73
2022/08/25 11:58:38;;;;;;;7.32;2.88;;;;;;;33.23;29.78;101495.66;5011096;28;20047;-73